PWSweather.com
Personal Weather Stations
Station Observations
265NC
Va2kh, Stcasimir, QC G0A 3L0

Va2khStcasimir, QC G0A 3L0

Lat: 46.65839, Lon: -72.13905

Elevation: 105

Station Type: National Geographic 265NC

http://www.qsl.net/va2kh

High Low Average
Temperature 40.8°F4.9°F 23.0°F-5.0°F 32.8°F0.4°F
Dew Point 32.6°F0.3°F 2.9°F-16.2°F 16.9°F-8.4°F
Winds 5.6 mph N9.0 mph N Calm Calm 2.6 mph 4.2 mph
Wind Gusts 14.5 mph23.3 mph -- 8.1 mph13.0 mph
Humidity 96% 24% 56%
Pressure 29.86 in1011.20 in 29.62 in1003.00 in -
Precipitation 0.00 in0.00 in - -
Hour Temp Dew Point Humidity Winds Wind Gusts Pressure Precip Precip Rate Daily Precip Total
12:00 AM 34.2°F1.2°C 32.4°F0.2°C 93% 0.7 mph NW1.1 kmh NW 3.1 mph5.0 kmh 29.63 in1003.4 mb 0.00 in0.0 mm 0.00 in0.0 mm 0.00 in0.0 mm
12:15 AM 34.2°F1.2°C 32.4°F0.2°C 93% 0.2 mph WSW0.3 kmh WSW 3.1 mph5.0 kmh 29.63 in1003.4 mb 0.00 in0.0 mm 0.00 in0.0 mm 0.00 in0.0 mm
12:30 AM 34.2°F1.2°C 32.4°F0.2°C 93% 0.1 mph SW0.2 kmh SW 3.1 mph5.0 kmh 29.63 in1003.4 mb 0.00 in0.0 mm 0.00 in0.0 mm 0.00 in0.0 mm
12:45 AM 34.0°F1.1°C 32.4°F0.2°C 94% Calm Calm 1.6 mph2.6 kmh 29.63 in1003.4 mb 0.00 in0.0 mm 0.00 in0.0 mm 0.00 in0.0 mm
01:00 AM 33.8°F1.0°C 32.3°F0.2°C 94% 0.1 mph WSW0.2 kmh WSW 2.2 mph3.5 kmh 29.62 in1003.0 mb 0.00 in0.0 mm 0.00 in0.0 mm 0.00 in0.0 mm
01:15 AM 33.6°F0.9°C 32.1°F0.1°C 94% Calm Calm 1.6 mph2.6 kmh 29.62 in1003.0 mb 0.00 in0.0 mm 0.00 in0.0 mm 0.00 in0.0 mm
01:30 AM 33.6°F0.9°C 32.3°F0.2°C 95% Calm Calm -- 29.62 in1003.0 mb 0.00 in0.0 mm 0.00 in0.0 mm 0.00 in0.0 mm
01:45 AM 33.6°F0.9°C 32.3°F0.2°C 95% 0.6 mph SW1.0 kmh SW 3.1 mph5.0 kmh 29.62 in1003.0 mb 0.00 in0.0 mm 0.00 in0.0 mm 0.00 in0.0 mm
02:00 AM 33.6°F0.9°C 32.3°F0.2°C 95% 1.0 mph WSW1.6 kmh WSW 4.5 mph7.2 kmh 29.63 in1003.4 mb 0.00 in0.0 mm 0.00 in0.0 mm 0.00 in0.0 mm
02:15 AM 33.6°F0.9°C 32.6°F0.3°C 96% 1.5 mph W2.4 kmh W 4.5 mph7.2 kmh 29.63 in1003.4 mb 0.00 in0.0 mm 0.00 in0.0 mm 0.00 in0.0 mm
02:30 AM 33.4°F0.8°C 32.4°F0.2°C 96% 0.5 mph NW0.8 kmh NW 2.2 mph3.5 kmh 29.63 in1003.4 mb 0.00 in0.0 mm 0.00 in0.0 mm 0.00 in0.0 mm
02:45 AM 33.4°F0.8°C 32.4°F0.2°C 96% 0.2 mph WNW0.3 kmh WNW 2.2 mph3.5 kmh 29.63 in1003.4 mb 0.00 in0.0 mm 0.00 in0.0 mm 0.00 in0.0 mm
03:00 AM 33.3°F0.7°C 32.3°F0.2°C 96% Calm Calm 2.2 mph3.5 kmh 29.63 in1003.4 mb 0.00 in0.0 mm 0.00 in0.0 mm 0.00 in0.0 mm
03:15 AM 33.3°F0.7°C 32.3°F0.2°C 96% Calm Calm 0.7 mph1.1 kmh 29.62 in1003.0 mb 0.00 in0.0 mm 0.00 in0.0 mm 0.00 in0.0 mm
03:30 AM 32.9°F0.5°C 31.9°F-0.1°C 96% Calm Calm 0.7 mph1.1 kmh 29.62 in1003.0 mb 0.00 in0.0 mm 0.00 in0.0 mm 0.00 in0.0 mm
03:45 AM 33.6°F0.9°C 32.1°F0.1°C 94% 0.9 mph N1.4 kmh N 5.4 mph8.7 kmh 29.63 in1003.4 mb 0.00 in0.0 mm 0.00 in0.0 mm 0.00 in0.0 mm
04:00 AM 34.5°F1.4°C 30.5°F-0.8°C 85% 2.8 mph N4.5 kmh N 9.8 mph15.8 kmh 29.64 in1003.7 mb 0.00 in0.0 mm 0.00 in0.0 mm 0.00 in0.0 mm
04:15 AM 34.3°F1.3°C 29.7°F-1.3°C 83% 1.6 mph NW2.6 kmh NW 6.0 mph9.7 kmh 29.65 in1004.1 mb 0.00 in0.0 mm 0.00 in0.0 mm 0.00 in0.0 mm
04:30 AM 34.0°F1.1°C 28.8°F-1.8°C 81% 3.3 mph N5.3 kmh N 9.2 mph14.8 kmh 29.63 in1003.4 mb 0.00 in0.0 mm 0.00 in0.0 mm 0.00 in0.0 mm
04:45 AM 33.4°F0.8°C 27.6°F-2.4°C 79% 1.6 mph N2.6 kmh N 6.9 mph11.1 kmh 29.65 in1004.1 mb 0.00 in0.0 mm 0.00 in0.0 mm 0.00 in0.0 mm
05:00 AM 32.9°F0.5°C 26.8°F-2.9°C 78% 2.7 mph N4.3 kmh N 7.6 mph12.2 kmh 29.64 in1003.7 mb 0.00 in0.0 mm 0.00 in0.0 mm 0.00 in0.0 mm
05:15 AM 32.7°F0.4°C 26.6°F-3.0°C 78% 3.1 mph NNE5.0 kmh NNE 9.8 mph15.8 kmh 29.65 in1004.1 mb 0.00 in0.0 mm 0.00 in0.0 mm 0.00 in0.0 mm
05:30 AM 32.7°F0.4°C 26.3°F-3.2°C 77% 3.1 mph N5.0 kmh N 7.6 mph12.2 kmh 29.66 in1004.4 mb 0.00 in0.0 mm 0.00 in0.0 mm 0.00 in0.0 mm
05:45 AM 32.5°F0.3°C 26.5°F-3.1°C 78% 2.6 mph N4.2 kmh N 9.2 mph14.8 kmh 29.66 in1004.4 mb 0.00 in0.0 mm 0.00 in0.0 mm 0.00 in0.0 mm
06:00 AM 32.2°F0.1°C 26.1°F-3.3°C 78% 2.7 mph N4.3 kmh N 7.6 mph12.2 kmh 29.67 in1004.7 mb 0.00 in0.0 mm 0.00 in0.0 mm 0.00 in0.0 mm
06:15 AM 31.8°F-0.1°C 25.8°F-3.4°C 78% 3.2 mph NNE5.1 kmh NNE 10.7 mph17.2 kmh 29.68 in1005.1 mb 0.00 in0.0 mm 0.00 in0.0 mm 0.00 in0.0 mm
06:30 AM 31.5°F-0.3°C 25.4°F-3.7°C 78% 3.5 mph N5.6 kmh N 9.2 mph14.8 kmh 29.68 in1005.1 mb 0.00 in0.0 mm 0.00 in0.0 mm 0.00 in0.0 mm
06:45 AM 31.1°F-0.5°C 25.1°F-3.8°C 78% 2.4 mph N3.9 kmh N 7.6 mph12.2 kmh 29.68 in1005.1 mb 0.00 in0.0 mm 0.00 in0.0 mm 0.00 in0.0 mm
07:00 AM 30.4°F-0.9°C 24.1°F-4.4°C 77% 3.4 mph N5.5 kmh N 9.2 mph14.8 kmh 29.69 in1005.4 mb 0.00 in0.0 mm 0.00 in0.0 mm 0.00 in0.0 mm
07:15 AM 29.5°F-1.4°C 22.9°F-5.1°C 76% 1.6 mph NNW2.6 kmh NNW 6.0 mph9.7 kmh 29.69 in1005.4 mb 0.00 in0.0 mm 0.00 in0.0 mm 0.00 in0.0 mm
07:30 AM 28.9°F-1.7°C 22.4°F-5.3°C 76% 1.7 mph NW2.7 kmh NW 8.3 mph13.4 kmh 29.70 in1005.8 mb 0.00 in0.0 mm 0.00 in0.0 mm 0.00 in0.0 mm
07:45 AM 29.1°F-1.6°C 21.9°F-5.6°C 74% 3.6 mph N5.8 kmh N 11.4 mph18.3 kmh 29.71 in1006.1 mb 0.00 in0.0 mm 0.00 in0.0 mm 0.00 in0.0 mm
08:00 AM 28.8°F-1.8°C 20.9°F-6.2°C 72% 2.4 mph N3.9 kmh N 8.3 mph13.4 kmh 29.72 in1006.4 mb 0.00 in0.0 mm 0.00 in0.0 mm 0.00 in0.0 mm
08:15 AM 29.1°F-1.6°C 20.9°F-6.2°C 71% 2.6 mph N4.2 kmh N 10.7 mph17.2 kmh 29.73 in1006.8 mb 0.00 in0.0 mm 0.00 in0.0 mm 0.00 in0.0 mm
08:30 AM 28.8°F-1.8°C 19.6°F-6.9°C 68% 4.0 mph N6.4 kmh N 11.4 mph18.3 kmh 29.73 in1006.8 mb 0.00 in0.0 mm 0.00 in0.0 mm 0.00 in0.0 mm
08:45 AM 28.4°F-2.0°C 18.9°F-7.3°C 67% 4.3 mph NNE6.9 kmh NNE 12.1 mph19.5 kmh 29.73 in1006.8 mb 0.00 in0.0 mm 0.00 in0.0 mm 0.00 in0.0 mm
09:00 AM 28.8°F-1.8°C 18.5°F-7.5°C 65% 4.1 mph N6.6 kmh N 12.1 mph19.5 kmh 29.73 in1006.8 mb 0.00 in0.0 mm 0.00 in0.0 mm 0.00 in0.0 mm
09:15 AM 29.1°F-1.6°C 18.1°F-7.7°C 63% 3.8 mph N6.1 kmh N 13.0 mph20.9 kmh 29.72 in1006.4 mb 0.00 in0.0 mm 0.00 in0.0 mm 0.00 in0.0 mm
09:30 AM 28.9°F-1.7°C 17.2°F-8.2°C 61% 5.6 mph N9.0 kmh N 13.6 mph21.9 kmh 29.73 in1006.8 mb 0.00 in0.0 mm 0.00 in0.0 mm 0.00 in0.0 mm
09:45 AM 29.3°F-1.5°C 16.8°F-8.4°C 59% 4.8 mph NE7.7 kmh NE 11.4 mph18.3 kmh 29.74 in1007.1 mb 0.00 in0.0 mm 0.00 in0.0 mm 0.00 in0.0 mm
10:00 AM 29.8°F-1.2°C 16.9°F-8.4°C 58% 3.8 mph N6.1 kmh N 12.1 mph19.5 kmh 29.74 in1007.1 mb 0.00 in0.0 mm 0.00 in0.0 mm 0.00 in0.0 mm
10:15 AM 30.2°F-1.0°C 16.8°F-8.4°C 57% 4.3 mph NE6.9 kmh NE 12.1 mph19.5 kmh 29.73 in1006.8 mb 0.00 in0.0 mm 0.00 in0.0 mm 0.00 in0.0 mm
10:30 AM 30.7°F-0.7°C 16.9°F-8.4°C 56% 3.6 mph NNE5.8 kmh NNE 12.1 mph19.5 kmh 29.73 in1006.8 mb 0.00 in0.0 mm 0.00 in0.0 mm 0.00 in0.0 mm
10:45 AM 30.7°F-0.7°C 16.5°F-8.6°C 55% 4.7 mph NE7.6 kmh NE 10.7 mph17.2 kmh 29.74 in1007.1 mb 0.00 in0.0 mm 0.00 in0.0 mm 0.00 in0.0 mm
11:00 AM 32.9°F0.5°C 16.8°F-8.4°C 51% 3.7 mph N6.0 kmh N 9.8 mph15.8 kmh 29.74 in1007.1 mb 0.00 in0.0 mm 0.00 in0.0 mm 0.00 in0.0 mm
11:15 AM 34.0°F1.1°C 15.4°F-9.2°C 46% 3.6 mph N5.8 kmh N 9.2 mph14.8 kmh 29.74 in1007.1 mb 0.00 in0.0 mm 0.00 in0.0 mm 0.00 in0.0 mm
11:30 AM 34.9°F1.6°C 15.7°F-9.1°C 45% 4.6 mph NNE7.4 kmh NNE 10.7 mph17.2 kmh 29.73 in1006.8 mb 0.00 in0.0 mm 0.00 in0.0 mm 0.00 in0.0 mm
11:45 AM 35.4°F1.9°C 15.2°F-9.3°C 43% 3.2 mph NNW5.1 kmh NNW 9.8 mph15.8 kmh 29.73 in1006.8 mb 0.00 in0.0 mm 0.00 in0.0 mm 0.00 in0.0 mm
12:00 PM 35.8°F2.1°C 15.0°F-9.4°C 42% 3.2 mph N5.1 kmh N 10.7 mph17.2 kmh 29.73 in1006.8 mb 0.00 in0.0 mm 0.00 in0.0 mm 0.00 in0.0 mm
12:15 PM 35.6°F2.0°C 14.3°F-9.8°C 41% 3.1 mph N5.0 kmh N 9.8 mph15.8 kmh 29.74 in1007.1 mb 0.00 in0.0 mm 0.00 in0.0 mm 0.00 in0.0 mm
12:30 PM 34.9°F1.6°C 13.6°F-10.2°C 41% 3.5 mph N5.6 kmh N 10.7 mph17.2 kmh 29.74 in1007.1 mb 0.00 in0.0 mm 0.00 in0.0 mm 0.00 in0.0 mm
12:45 PM 35.8°F2.1°C 13.3°F-10.4°C 39% 3.4 mph NNE5.5 kmh NNE 9.8 mph15.8 kmh 29.74 in1007.1 mb 0.00 in0.0 mm 0.00 in0.0 mm 0.00 in0.0 mm
01:00 PM 37.0°F2.8°C 13.8°F-10.1°C 38% 3.1 mph N5.0 kmh N 9.2 mph14.8 kmh 29.74 in1007.1 mb 0.00 in0.0 mm 0.00 in0.0 mm 0.00 in0.0 mm
01:15 PM 36.3°F2.4°C 12.0°F-11.1°C 36% 2.2 mph NW3.5 kmh NW 7.6 mph12.2 kmh 29.74 in1007.1 mb 0.00 in0.0 mm 0.00 in0.0 mm 0.00 in0.0 mm
01:30 PM 38.3°F3.5°C 14.3°F-9.8°C 37% 1.7 mph N2.7 kmh N 6.9 mph11.1 kmh 29.74 in1007.1 mb 0.00 in0.0 mm 0.00 in0.0 mm 0.00 in0.0 mm
01:45 PM 38.8°F3.8°C 12.9°F-10.6°C 34% 1.8 mph N2.9 kmh N 7.6 mph12.2 kmh 29.73 in1006.8 mb 0.00 in0.0 mm 0.00 in0.0 mm 0.00 in0.0 mm
02:00 PM 38.3°F3.5°C 12.4°F-10.9°C 34% 1.8 mph NW2.9 kmh NW 9.2 mph14.8 kmh 29.72 in1006.4 mb 0.00 in0.0 mm 0.00 in0.0 mm 0.00 in0.0 mm
02:15 PM 39.0°F3.9°C 13.1°F-10.5°C 34% 1.6 mph NW2.6 kmh NW 8.3 mph13.4 kmh 29.71 in1006.1 mb 0.00 in0.0 mm 0.00 in0.0 mm 0.00 in0.0 mm
02:30 PM 39.0°F3.9°C 11.7°F-11.3°C 32% 1.9 mph NW3.1 kmh NW 6.9 mph11.1 kmh 29.71 in1006.1 mb 0.00 in0.0 mm 0.00 in0.0 mm 0.00 in0.0 mm
02:45 PM 38.8°F3.8°C 12.2°F-11.0°C 33% 1.8 mph NW2.9 kmh NW 6.9 mph11.1 kmh 29.71 in1006.1 mb 0.00 in0.0 mm 0.00 in0.0 mm 0.00 in0.0 mm
03:00 PM 39.2°F4.0°C 11.8°F-11.2°C 32% 1.8 mph NNW2.9 kmh NNW 6.9 mph11.1 kmh 29.71 in1006.1 mb 0.00 in0.0 mm 0.00 in0.0 mm 0.00 in0.0 mm
03:15 PM 38.8°F3.8°C 10.8°F-11.8°C 31% 2.4 mph NW3.9 kmh NW 6.9 mph11.1 kmh 29.70 in1005.8 mb 0.00 in0.0 mm 0.00 in0.0 mm 0.00 in0.0 mm
03:30 PM 38.8°F3.8°C 10.8°F-11.8°C 31% 2.4 mph NW3.9 kmh NW 8.3 mph13.4 kmh 29.72 in1006.4 mb 0.00 in0.0 mm 0.00 in0.0 mm 0.00 in0.0 mm
03:45 PM 38.7°F3.7°C 11.4°F-11.4°C 32% 3.0 mph NW4.8 kmh NW 7.6 mph12.2 kmh 29.73 in1006.8 mb 0.00 in0.0 mm 0.00 in0.0 mm 0.00 in0.0 mm
04:00 PM 38.8°F3.8°C 10.8°F-11.8°C 31% 2.7 mph NW4.3 kmh NW 9.2 mph14.8 kmh 29.73 in1006.8 mb 0.00 in0.0 mm 0.00 in0.0 mm 0.00 in0.0 mm
04:15 PM 39.2°F4.0°C 10.4°F-12.0°C 30% 2.0 mph NW3.2 kmh NW 8.3 mph13.4 kmh 29.73 in1006.8 mb 0.00 in0.0 mm 0.00 in0.0 mm 0.00 in0.0 mm
04:30 PM 40.8°F4.9°C 11.8°F-11.2°C 30% 1.9 mph NNW3.1 kmh NNW 6.9 mph11.1 kmh 29.72 in1006.4 mb 0.00 in0.0 mm 0.00 in0.0 mm 0.00 in0.0 mm
04:45 PM 39.6°F4.2°C 10.7°F-11.8°C 30% 2.3 mph NW3.7 kmh NW 6.9 mph11.1 kmh 29.72 in1006.4 mb 0.00 in0.0 mm 0.00 in0.0 mm 0.00 in0.0 mm
05:00 PM 39.4°F4.1°C 11.3°F-11.5°C 31% 2.4 mph NW3.9 kmh NW 7.6 mph12.2 kmh 29.73 in1006.8 mb 0.00 in0.0 mm 0.00 in0.0 mm 0.00 in0.0 mm
05:15 PM 39.7°F4.3°C 10.9°F-11.7°C 30% 2.4 mph NW3.9 kmh NW 9.2 mph14.8 kmh 29.72 in1006.4 mb 0.00 in0.0 mm 0.00 in0.0 mm 0.00 in0.0 mm
05:30 PM 40.5°F4.7°C 8.3°F-13.2°C 26% 3.0 mph N4.8 kmh N 9.8 mph15.8 kmh 29.73 in1006.8 mb 0.00 in0.0 mm 0.00 in0.0 mm 0.00 in0.0 mm
05:45 PM 40.8°F4.9°C 7.8°F-13.4°C 25% 2.6 mph NNW4.2 kmh NNW 6.0 mph9.7 kmh 29.74 in1007.1 mb 0.00 in0.0 mm 0.00 in0.0 mm 0.00 in0.0 mm
06:00 PM 40.5°F4.7°C 7.4°F-13.7°C 25% 3.5 mph N5.6 kmh N 9.2 mph14.8 kmh 29.74 in1007.1 mb 0.00 in0.0 mm 0.00 in0.0 mm 0.00 in0.0 mm
06:15 PM 40.1°F4.5°C 6.2°F-14.3°C 24% 3.3 mph N5.3 kmh N 8.3 mph13.4 kmh 29.75 in1007.5 mb 0.00 in0.0 mm 0.00 in0.0 mm 0.00 in0.0 mm
06:30 PM 38.7°F3.7°C 5.9°F-14.5°C 25% 1.9 mph NNE3.1 kmh NNE 6.9 mph11.1 kmh 29.75 in1007.5 mb 0.00 in0.0 mm 0.00 in0.0 mm 0.00 in0.0 mm
06:45 PM 35.6°F2.0°C 6.5°F-14.2°C 29% 1.7 mph NNW2.7 kmh NNW 6.0 mph9.7 kmh 29.76 in1007.8 mb 0.00 in0.0 mm 0.00 in0.0 mm 0.00 in0.0 mm
07:00 PM 32.9°F0.5°C 6.3°F-14.3°C 32% 1.3 mph NNW2.1 kmh NNW 6.0 mph9.7 kmh 29.76 in1007.8 mb 0.00 in0.0 mm 0.00 in0.0 mm 0.00 in0.0 mm
07:15 PM 30.6°F-0.8°C 7.4°F-13.7°C 37% 1.2 mph NNW1.9 kmh NNW 6.0 mph9.7 kmh 29.76 in1007.8 mb 0.00 in0.0 mm 0.00 in0.0 mm 0.00 in0.0 mm
07:30 PM 29.3°F-1.5°C 8.0°F-13.3°C 40% 0.4 mph NW0.6 kmh NW 3.1 mph5.0 kmh 29.77 in1008.1 mb 0.00 in0.0 mm 0.00 in0.0 mm 0.00 in0.0 mm
07:45 PM 28.4°F-2.0°C 8.3°F-13.2°C 42% 0.7 mph NW1.1 kmh NW 5.4 mph8.7 kmh 29.78 in1008.5 mb 0.00 in0.0 mm 0.00 in0.0 mm 0.00 in0.0 mm
08:00 PM 28.2°F-2.1°C 8.1°F-13.3°C 42% 1.1 mph NNW1.8 kmh NNW 6.0 mph9.7 kmh 29.79 in1008.8 mb 0.00 in0.0 mm 0.00 in0.0 mm 0.00 in0.0 mm
08:15 PM 28.2°F-2.1°C 7.0°F-13.9°C 40% 3.0 mph N4.8 kmh N 9.2 mph14.8 kmh 29.80 in1009.1 mb 0.00 in0.0 mm 0.00 in0.0 mm 0.00 in0.0 mm
08:30 PM 27.9°F-2.3°C 6.7°F-14.1°C 40% 2.0 mph N3.2 kmh N 6.9 mph11.1 kmh 29.80 in1009.1 mb 0.00 in0.0 mm 0.00 in0.0 mm 0.00 in0.0 mm
08:45 PM 27.5°F-2.5°C 5.8°F-14.6°C 39% 2.3 mph N3.7 kmh N 8.3 mph13.4 kmh 29.81 in1009.5 mb 0.00 in0.0 mm 0.00 in0.0 mm 0.00 in0.0 mm
09:00 PM 27.5°F-2.5°C 5.3°F-14.8°C 38% 2.8 mph NNE4.5 kmh NNE 12.1 mph19.5 kmh 29.82 in1009.8 mb 0.00 in0.0 mm 0.00 in0.0 mm 0.00 in0.0 mm
09:15 PM 27.1°F-2.7°C 5.0°F-15.0°C 38% 3.1 mph N5.0 kmh N 10.7 mph17.2 kmh 29.83 in1010.2 mb 0.00 in0.0 mm 0.00 in0.0 mm 0.00 in0.0 mm
09:30 PM 26.8°F-2.9°C 4.1°F-15.5°C 37% 4.4 mph NNE7.1 kmh NNE 13.6 mph21.9 kmh 29.83 in1010.2 mb 0.00 in0.0 mm 0.00 in0.0 mm 0.00 in0.0 mm
09:45 PM 26.4°F-3.1°C 3.1°F-16.1°C 36% 4.9 mph N7.9 kmh N 13.0 mph20.9 kmh 29.83 in1010.2 mb 0.00 in0.0 mm 0.00 in0.0 mm 0.00 in0.0 mm
10:00 PM 25.9°F-3.4°C 3.2°F-16.0°C 37% 4.2 mph N6.8 kmh N 12.1 mph19.5 kmh 29.83 in1010.2 mb 0.00 in0.0 mm 0.00 in0.0 mm 0.00 in0.0 mm
10:15 PM 25.2°F-3.8°C 3.2°F-16.0°C 38% 5.2 mph NNE8.4 kmh NNE 9.8 mph15.8 kmh 29.83 in1010.2 mb 0.00 in0.0 mm 0.00 in0.0 mm 0.00 in0.0 mm
10:30 PM 24.8°F-4.0°C 2.9°F-16.2°C 38% 4.8 mph N7.7 kmh N 13.0 mph20.9 kmh 29.83 in1010.2 mb 0.00 in0.0 mm 0.00 in0.0 mm 0.00 in0.0 mm
10:45 PM 24.3°F-4.3°C 2.9°F-16.2°C 39% 4.6 mph NE7.4 kmh NE 14.5 mph23.3 kmh 29.84 in1010.5 mb 0.00 in0.0 mm 0.00 in0.0 mm 0.02 in0.5 mm
11:00 PM 23.9°F-4.5°C 3.2°F-16.0°C 40% 4.7 mph NNW7.6 kmh NNW 10.7 mph17.2 kmh 29.84 in1010.5 mb 0.00 in0.0 mm 0.00 in0.0 mm 0.02 in0.5 mm
11:15 PM 23.5°F-4.7°C 3.4°F-15.9°C 41% 4.7 mph NNE7.6 kmh NNE 12.1 mph19.5 kmh 29.84 in1010.5 mb 0.00 in0.0 mm 0.00 in0.0 mm 0.02 in0.5 mm
11:30 PM 23.2°F-4.9°C 3.0°F-16.1°C 41% 4.6 mph N7.4 kmh N 12.1 mph19.5 kmh 29.85 in1010.8 mb 0.00 in0.0 mm 0.00 in0.0 mm 0.02 in0.5 mm
11:45 PM 23.0°F-5.0°C 2.9°F-16.2°C 41% 5.2 mph NNE8.4 kmh NNE 12.1 mph19.5 kmh 29.86 in1011.2 mb 0.00 in0.0 mm 0.00 in0.0 mm 0.02 in0.5 mm